Time,TemperatureF,DewpointF,PressureIn,WindDirection,WindDirectionDegrees,WindSpeedMPH,WindSpeedGustMPH,Humidity,HourlyPrecipIn,Conditions,Clouds,dailyrainin,SoftwareType,DateUTC
2017-01-22 00:02:00,30.8,29.3,29.71,WSW,248,1.0,3.0,94,0.00,,-RA,0.00,VWS V15.00,2017-01-22 08:02:00,
2017-01-22 00:07:00,30.9,29.4,29.71,West,266,1.0,3.0,94,0.00,,-RA,0.00,VWS V15.00,2017-01-22 08:07:00,
2017-01-22 00:12:00,30.7,29.2,29.71,SW,235,1.0,3.0,94,0.00,,-RA,0.00,VWS V15.00,2017-01-22 08:12:00,
2017-01-22 00:17:00,30.4,28.6,29.72,WSW,238,0.0,3.0,93,0.00,,-RA,0.00,VWS V15.00,2017-01-22 08:17:00,
2017-01-22 00:22:00,30.1,28.3,29.72,WSW,246,0.0,3.0,93,0.00,,-RA,0.00,VWS V15.00,2017-01-22 08:22:00,
2017-01-22 00:27:00,30.1,28.6,29.72,WSW,249,1.0,3.0,94,0.00,,-RA,0.00,VWS V15.00,2017-01-22 08:27:00,
2017-01-22 00:32:00,30.2,28.7,29.72,WSW,252,0.0,0.0,94,0.00,,-RA,0.00,VWS V15.00,2017-01-22 08:32:00,
2017-01-22 00:37:00,30.2,28.7,29.72,WSW,243,0.0,1.5,94,0.00,,-RA,0.00,VWS V15.00,2017-01-22 08:37:00,
2017-01-22 00:42:00,30.1,28.6,29.72,WSW,238,1.0,3.0,94,0.00,,-RA,0.00,VWS V15.00,2017-01-22 08:42:00,
2017-01-22 00:47:00,30.0,28.5,29.72,SW,218,0.0,3.0,94,0.00,,-RA,0.00,VWS V15.00,2017-01-22 08:47:00,
2017-01-22 00:52:00,29.9,28.4,29.72,SSW,210,0.0,3.0,94,0.00,,-RA,0.00,VWS V15.00,2017-01-22 08:52:00,
2017-01-22 00:57:00,29.8,28.3,29.72,SSW,207,0.0,3.0,94,0.00,,-RA,0.00,VWS V15.00,2017-01-22 08:57:00,
2017-01-22 01:02:00,29.6,28.1,29.71,WSW,238,1.0,3.0,94,0.00,,-RA,0.00,VWS V15.00,2017-01-22 09:02:00,
2017-01-22 01:08:00,29.7,28.2,29.72,WSW,248,1.0,3.0,94,0.00,,-RA,0.00,VWS V15.00,2017-01-22 09:08:00,
2017-01-22 01:13:00,29.9,28.4,29.72,WSW,242,2.0,3.0,94,0.00,,-RA,0.00,VWS V15.00,2017-01-22 09:13:00,
2017-01-22 01:18:00,30.1,28.6,29.72,West,262,3.0,4.5,94,0.00,,-RA,0.00,VWS V15.00,2017-01-22 09:18:00,
2017-01-22 01:23:00,30.2,28.7,29.72,West,269,1.0,6.0,94,0.00,,-RA,0.00,VWS V15.00,2017-01-22 09:23:00,
2017-01-22 01:28:00,30.2,28.7,29.71,West,274,0.0,6.0,94,0.00,,-RA,0.00,VWS V15.00,2017-01-22 09:28:00,
2017-01-22 01:33:00,30.1,28.6,29.71,West,278,1.0,3.0,94,0.00,,-RA,0.00,VWS V15.00,2017-01-22 09:33:00,
2017-01-22 01:38:00,29.9,28.4,29.71,WNW,300,2.0,4.5,94,0.00,,-RA,0.00,VWS V15.00,2017-01-22 09:38:00,
2017-01-22 01:43:00,29.6,28.1,29.71,WNW,294,5.0,7.5,94,0.00,,-RA,0.00,VWS V15.00,2017-01-22 09:43:00,
2017-01-22 01:48:00,29.6,28.1,29.71,WNW,296,3.0,7.5,94,0.00,,-RA,0.00,VWS V15.00,2017-01-22 09:48:00,
2017-01-22 01:53:00,29.8,28.3,29.71,WNW,294,3.0,7.5,94,0.00,,-RA,0.00,VWS V15.00,2017-01-22 09:53:00,
2017-01-22 01:58:00,30.0,28.5,29.71,NNW,328,2.0,7.5,94,0.00,,-RA,0.00,VWS V15.00,2017-01-22 09:58:00,
2017-01-22 02:03:00,30.0,28.5,29.71,WNW,291,3.0,6.0,94,0.00,,-RA,0.00,VWS V15.00,2017-01-22 10:03:00,
2017-01-22 02:08:00,30.1,28.6,29.71,SW,228,0.0,7.5,94,0.00,,-RA,0.00,VWS V15.00,2017-01-22 10:08:00,
2017-01-22 02:13:00,30.0,28.5,29.71,West,273,1.0,7.5,94,0.00,,-RA,0.00,VWS V15.00,2017-01-22 10:13:00,
2017-01-22 02:18:00,29.8,28.3,29.71,WNW,294,3.0,7.5,94,0.00,,-RA,0.00,VWS V15.00,2017-01-22 10:18:00,
2017-01-22 02:23:00,29.8,28.3,29.71,WNW,287,4.0,7.5,94,0.00,,-RA,0.00,VWS V15.00,2017-01-22 10:23:00,
2017-01-22 02:28:00,29.7,28.2,29.71,WNW,295,2.0,7.5,94,0.00,,-RA,0.00,VWS V15.00,2017-01-22 10:28:00,
2017-01-22 02:33:00,29.7,28.2,29.70,West,270,1.0,4.5,94,0.00,,-RA,0.00,VWS V15.00,2017-01-22 10:33:00,
2017-01-22 02:38:00,29.6,28.1,29.71,WSW,253,0.0,4.5,94,0.00,,-RA,0.00,VWS V15.00,2017-01-22 10:38:00,
2017-01-22 02:43:00,29.7,28.2,29.71,WSW,249,2.0,4.5,94,0.00,,-RA,0.00,VWS V15.00,2017-01-22 10:43:00,
2017-01-22 02:48:00,29.4,27.9,29.70,WSW,242,2.0,4.5,94,0.00,,-RA,0.00,VWS V15.00,2017-01-22 10:48:00,
2017-01-22 02:53:00,29.1,27.6,29.70,WSW,256,1.0,4.5,94,0.00,,-RA,0.00,VWS V15.00,2017-01-22 10:53:00,
2017-01-22 02:58:00,28.9,27.4,29.70,WSW,241,0.0,4.5,94,0.00,,-RA,0.00,VWS V15.00,2017-01-22 10:58:00,
2017-01-22 03:03:00,28.7,27.2,29.70,SSE,148,0.0,1.5,94,0.00,,-RA,0.00,VWS V15.00,2017-01-22 11:03:00,
2017-01-22 03:08:00,28.5,27.0,29.70,SSE,148,0.0,1.5,94,0.00,,-RA,0.00,VWS V15.00,2017-01-22 11:08:00,
2017-01-22 03:14:00,28.3,26.8,29.70,SSE,148,0.0,1.5,94,0.00,,-RA,0.00,VWS V15.00,2017-01-22 11:14:00,
2017-01-22 03:19:00,28.1,26.6,29.69,SSE,149,0.0,1.5,94,0.00,,-RA,0.00,VWS V15.00,2017-01-22 11:19:00,
2017-01-22 03:24:00,28.2,26.7,29.69,NW,314,4.0,6.0,94,0.00,,-RA,0.00,VWS V15.00,2017-01-22 11:24:00,
2017-01-22 03:29:00,28.5,27.2,29.69,NW,314,3.0,7.5,95,0.00,,-RA,0.00,VWS V15.00,2017-01-22 11:29:00,
2017-01-22 03:34:00,28.5,27.2,29.69,WNW,300,4.0,9.0,95,0.00,,-RA,0.00,VWS V15.00,2017-01-22 11:34:00,
2017-01-22 03:39:00,28.4,27.1,29.68,NW,304,5.0,10.5,95,0.00,,-RA,0.00,VWS V15.00,2017-01-22 11:39:00,
2017-01-22 03:44:00,28.3,26.8,29.68,WNW,302,4.0,10.5,94,0.00,,-RA,0.00,VWS V15.00,2017-01-22 11:44:00,
2017-01-22 03:49:00,28.0,26.5,29.68,NW,305,4.0,10.5,94,0.00,,-RA,0.00,VWS V15.00,2017-01-22 11:49:00,
2017-01-22 03:54:00,28.0,26.5,29.68,NW,309,3.0,10.5,94,0.00,,-RA,0.00,VWS V15.00,2017-01-22 11:54:00,
2017-01-22 03:59:00,27.9,26.4,29.67,NW,305,3.0,10.5,94,0.00,,-RA,0.00,VWS V15.00,2017-01-22 11:59:00,
2017-01-22 04:04:00,27.9,26.4,29.67,NW,320,5.0,10.5,94,0.00,,-RA,0.00,VWS V15.00,2017-01-22 12:04:00,
2017-01-22 04:09:00,27.9,26.4,29.67,NW,319,4.0,10.5,94,0.00,,-RA,0.00,VWS V15.00,2017-01-22 12:09:00,
2017-01-22 04:14:00,28.1,26.6,29.67,NW,306,2.0,10.5,94,0.00,,-RA,0.00,VWS V15.00,2017-01-22 12:14:00,
2017-01-22 04:19:00,28.1,26.9,29.67,WNW,303,2.0,10.5,95,0.00,,-RA,0.00,VWS V15.00,2017-01-22 12:19:00,
2017-01-22 04:24:00,28.2,27.0,29.67,WNW,295,2.0,10.5,95,0.00,,-RA,0.00,VWS V15.00,2017-01-22 12:24:00,
2017-01-22 04:29:00,28.1,26.9,29.67,NW,305,2.0,10.5,95,0.00,,-RA,0.00,VWS V15.00,2017-01-22 12:29:00,
2017-01-22 04:34:00,28.0,26.5,29.66,NW,318,0.0,3.0,94,0.00,,-RA,0.00,VWS V15.00,2017-01-22 12:34:00,
2017-01-22 04:39:00,27.8,26.3,29.66,NNE,25,0.0,3.0,94,0.00,,-RA,0.00,VWS V15.00,2017-01-22 12:39:00,
2017-01-22 04:44:00,27.4,25.9,29.66,North,354,1.0,7.5,94,0.00,,-RA,0.00,VWS V15.00,2017-01-22 12:44:00,
2017-01-22 04:49:00,27.3,25.8,29.66,NNW,334,2.0,7.5,94,0.00,,-RA,0.00,VWS V15.00,2017-01-22 12:49:00,
2017-01-22 04:54:00,27.0,25.5,29.66,North,359,1.0,7.5,94,0.00,,-RA,0.00,VWS V15.00,2017-01-22 12:54:00,
2017-01-22 04:59:00,26.7,25.2,29.66,NW,317,2.0,7.5,94,0.00,,-RA,0.00,VWS V15.00,2017-01-22 12:59:00,
2017-01-22 05:04:00,26.5,25.0,29.66,West,281,2.0,4.5,94,0.00,,-RA,0.00,VWS V15.00,2017-01-22 13:04:00,
2017-01-22 05:09:00,26.5,25.0,29.65,NNW,341,3.0,6.0,94,0.00,,-RA,0.00,VWS V15.00,2017-01-22 13:09:00,
2017-01-22 05:14:00,26.3,24.8,29.65,NW,312,1.0,7.5,94,0.00,,-RA,0.00,VWS V15.00,2017-01-22 13:14:00,
2017-01-22 05:19:00,26.4,24.9,29.64,NW,308,0.0,7.5,94,0.00,,-RA,0.00,VWS V15.00,2017-01-22 13:19:00,
2017-01-22 05:24:00,26.4,24.9,29.64,NW,304,3.0,7.5,94,0.00,,-RA,0.00,VWS V15.00,2017-01-22 13:24:00,
2017-01-22 05:29:00,26.5,25.0,29.64,NW,319,4.0,7.5,94,0.00,,-RA,0.00,VWS V15.00,2017-01-22 13:29:00,
2017-01-22 05:35:00,26.5,25.0,29.64,North,355,2.0,6.0,94,0.00,,-RA,0.00,VWS V15.00,2017-01-22 13:35:00,
2017-01-22 05:40:00,26.5,25.0,29.64,NNW,327,3.0,7.5,94,0.00,,-RA,0.00,VWS V15.00,2017-01-22 13:40:00,
2017-01-22 05:45:00,26.4,24.9,29.64,NW,305,4.0,7.5,94,0.00,,-RA,0.00,VWS V15.00,2017-01-22 13:45:00,
2017-01-22 05:50:00,26.5,25.0,29.64,WNW,298,3.0,7.5,94,0.00,,-RA,0.00,VWS V15.00,2017-01-22 13:50:00,
2017-01-22 05:55:00,26.6,25.1,29.64,WNW,297,2.0,7.5,94,0.00,,-RA,0.00,VWS V15.00,2017-01-22 13:55:00,
2017-01-22 06:00:00,26.9,25.4,29.64,NW,309,1.0,1.5,94,0.00,,-RA,0.00,VWS V15.00,2017-01-22 14:00:00,
2017-01-22 06:05:00,27.0,25.5,29.63,NNE,27,0.0,3.0,94,0.00,,-RA,0.00,VWS V15.00,2017-01-22 14:05:00,
2017-01-22 06:10:00,26.9,25.4,29.63,NNW,338,3.0,6.0,94,0.00,,-RA,0.00,VWS V15.00,2017-01-22 14:10:00,
2017-01-22 06:15:00,26.7,25.2,29.63,NW,321,2.0,6.0,94,0.00,,-RA,0.00,VWS V15.00,2017-01-22 14:15:00,
2017-01-22 06:20:00,26.6,25.1,29.63,WNW,298,4.0,6.0,94,0.00,,-RA,0.00,VWS V15.00,2017-01-22 14:20:00,
2017-01-22 06:25:00,26.5,25.0,29.63,NNW,333,4.0,7.5,94,0.00,,-RA,0.00,VWS V15.00,2017-01-22 14:25:00,
2017-01-22 06:30:00,26.5,25.0,29.63,NW,323,3.0,6.0,94,0.00,,-RA,0.00,VWS V15.00,2017-01-22 14:30:00,
2017-01-22 06:35:00,26.4,24.9,29.62,NNW,330,3.0,9.0,94,0.00,,-RA,0.00,VWS V15.00,2017-01-22 14:35:00,
2017-01-22 06:40:00,26.3,24.8,29.61,NW,316,3.0,9.0,94,0.00,,-RA,0.00,VWS V15.00,2017-01-22 14:40:00,
2017-01-22 06:45:00,26.4,24.9,29.61,NW,312,4.0,9.0,94,0.00,,-RA,0.00,VWS V15.00,2017-01-22 14:45:00,
2017-01-22 06:50:00,26.6,25.1,29.61,NNW,335,3.0,9.0,94,0.00,,-RA,0.00,VWS V15.00,2017-01-22 14:50:00,
2017-01-22 06:55:00,26.8,25.3,29.61,NW,308,0.0,9.0,94,0.00,,-RA,0.00,VWS V15.00,2017-01-22 14:55:00,
2017-01-22 07:00:00,27.0,25.5,29.61,NNW,338,1.0,1.5,94,0.00,,-RA,0.00,VWS V15.00,2017-01-22 15:00:00,
2017-01-22 07:05:00,27.1,25.9,29.61,NW,305,3.0,6.0,95,0.00,,-RA,0.00,VWS V15.00,2017-01-22 15:05:00,
2017-01-22 07:10:00,27.3,26.1,29.61,WNW,302,1.0,6.0,95,0.00,,-RA,0.00,VWS V15.00,2017-01-22 15:10:00,
2017-01-22 07:15:00,27.3,26.1,29.61,NW,320,2.0,6.0,95,0.00,,-RA,0.00,VWS V15.00,2017-01-22 15:15:00,
2017-01-22 07:20:00,27.5,26.3,29.60,NW,313,2.0,6.0,95,0.00,,-RA,0.00,VWS V15.00,2017-01-22 15:20:00,
2017-01-22 07:25:00,27.6,26.4,29.61,WNW,297,2.0,6.0,95,0.00,,-RA,0.00,VWS V15.00,2017-01-22 15:25:00,
2017-01-22 07:30:00,27.8,26.6,29.61,WSW,248,0.0,1.5,95,0.00,,-RA,0.00,VWS V15.00,2017-01-22 15:30:00,
2017-01-22 07:35:00,27.9,26.7,29.61,South,177,0.0,1.5,95,0.00,,-RA,0.00,VWS V15.00,2017-01-22 15:35:00,
2017-01-22 07:40:00,27.7,26.5,29.61,South,183,0.0,1.5,95,0.00,,-RA,0.00,VWS V15.00,2017-01-22 15:40:00,
2017-01-22 07:45:00,27.7,26.5,29.61,North,358,0.0,1.5,95,0.00,,-RA,0.00,VWS V15.00,2017-01-22 15:45:00,
2017-01-22 07:50:00,27.8,26.6,29.61,WSW,246,0.0,1.5,95,0.00,,-RA,0.00,VWS V15.00,2017-01-22 15:50:00,
2017-01-22 07:55:00,27.9,26.7,29.61,WSW,245,0.0,1.5,95,0.00,,-RA,0.00,VWS V15.00,2017-01-22 15:55:00,
2017-01-22 08:00:00,28.0,26.8,29.61,WNW,288,1.0,1.5,95,0.00,,-RA,0.00,VWS V15.00,2017-01-22 16:00:00,
2017-01-22 08:06:00,28.6,27.4,29.61,WNW,285,2.0,4.5,95,0.00,,-RA,0.00,VWS V15.00,2017-01-22 16:06:00,
2017-01-22 08:11:00,29.0,27.8,29.62,South,174,1.0,4.5,95,0.00,,-RA,0.00,VWS V15.00,2017-01-22 16:11:00,
2017-01-22 08:16:00,28.8,27.5,29.61,WNW,298,0.0,4.5,95,0.00,,-RA,0.00,VWS V15.00,2017-01-22 16:16:00,
2017-01-22 08:21:00,28.9,27.6,29.61,North,1,1.0,4.5,95,0.00,,-RA,0.00,VWS V15.00,2017-01-22 16:21:00,
2017-01-22 08:26:00,29.2,28.0,29.61,North,11,1.0,4.5,95,0.00,,-RA,0.00,VWS V15.00,2017-01-22 16:26:00,
2017-01-22 08:31:00,29.3,28.0,29.62,SSE,159,2.0,4.5,95,0.00,,-RA,0.00,VWS V15.00,2017-01-22 16:31:00,